sensor_id;sensor_type;location;lat;lon;timestamp;P1;durP1;ratioP1;P2;durP2;ratioP2
81841;SDS011;71284;50.918;7.092;2024-01-15T00:02:13;19.20;;;10.23;;
81841;SDS011;71284;50.918;7.092;2024-01-15T00:04:40;24.58;;;10.98;;
81841;SDS011;71284;50.918;7.092;2024-01-15T00:07:07;19.17;;;10.15;;
81841;SDS011;71284;50.918;7.092;2024-01-15T00:09:34;21.90;;;10.48;;
81841;SDS011;71284;50.918;7.092;2024-01-15T00:12:00;17.75;;;9.32;;
81841;SDS011;71284;50.918;7.092;2024-01-15T00:14:27;25.27;;;9.80;;
81841;SDS011;71284;50.918;7.092;2024-01-15T00:16:53;29.98;;;12.07;;
81841;SDS011;71284;50.918;7.092;2024-01-15T00:19:20;26.55;;;11.75;;
81841;SDS011;71284;50.918;7.092;2024-01-15T00:21:47;22.75;;;10.95;;
81841;SDS011;71284;50.918;7.092;2024-01-15T00:24:14;41.20;;;11.35;;
81841;SDS011;71284;50.918;7.092;2024-01-15T00:26:40;27.23;;;11.70;;
81841;SDS011;71284;50.918;7.092;2024-01-15T00:29:07;16.85;;;9.70;;
81841;SDS011;71284;50.918;7.092;2024-01-15T00:31:34;20.98;;;11.85;;
81841;SDS011;71284;50.918;7.092;2024-01-15T00:34:01;28.77;;;12.02;;
81841;SDS011;71284;50.918;7.092;2024-01-15T00:36:27;21.20;;;10.05;;
81841;SDS011;71284;50.918;7.092;2024-01-15T00:38:54;29.37;;;11.25;;
81841;SDS011;71284;50.918;7.092;2024-01-15T00:41:20;21.87;;;10.00;;
81841;SDS011;71284;50.918;7.092;2024-01-15T00:43:47;29.73;;;11.18;;
81841;SDS011;71284;50.918;7.092;2024-01-15T00:46:15;19.00;;;10.50;;
81841;SDS011;71284;50.918;7.092;2024-01-15T00:48:42;23.40;;;10.00;;
81841;SDS011;71284;50.918;7.092;2024-01-15T00:51:08;32.30;;;12.00;;
81841;SDS011;71284;50.918;7.092;2024-01-15T00:53:35;19.73;;;10.30;;
81841;SDS011;71284;50.918;7.092;2024-01-15T00:56:02;25.25;;;12.25;;
81841;SDS011;71284;50.918;7.092;2024-01-15T00:58:28;32.83;;;13.30;;
81841;SDS011;71284;50.918;7.092;2024-01-15T01:00:55;28.80;;;12.30;;
81841;SDS011;71284;50.918;7.092;2024-01-15T01:03:21;28.50;;;11.40;;
81841;SDS011;71284;50.918;7.092;2024-01-15T01:05:48;28.40;;;13.38;;
81841;SDS011;71284;50.918;7.092;2024-01-15T01:08:15;30.48;;;13.18;;
81841;SDS011;71284;50.918;7.092;2024-01-15T01:10:41;24.40;;;11.48;;
81841;SDS011;71284;50.918;7.092;2024-01-15T01:13:09;27.45;;;11.85;;
81841;SDS011;71284;50.918;7.092;2024-01-15T01:15:35;31.75;;;12.40;;
81841;SDS011;71284;50.918;7.092;2024-01-15T01:18:02;25.95;;;11.80;;
81841;SDS011;71284;50.918;7.092;2024-01-15T01:20:29;29.67;;;11.15;;
81841;SDS011;71284;50.918;7.092;2024-01-15T01:22:56;28.52;;;11.00;;
81841;SDS011;71284;50.918;7.092;2024-01-15T01:25:22;26.27;;;11.45;;
81841;SDS011;71284;50.918;7.092;2024-01-15T01:27:49;25.42;;;13.52;;
81841;SDS011;71284;50.918;7.092;2024-01-15T01:30:15;34.78;;;13.30;;
81841;SDS011;71284;50.918;7.092;2024-01-15T01:32:42;23.52;;;10.60;;
81841;SDS011;71284;50.918;7.092;2024-01-15T01:35:09;40.30;;;13.70;;
81841;SDS011;71284;50.918;7.092;2024-01-15T01:37:35;26.98;;;13.02;;
81841;SDS011;71284;50.918;7.092;2024-01-15T01:40:02;31.15;;;12.23;;
81841;SDS011;71284;50.918;7.092;2024-01-15T01:42:29;29.42;;;11.82;;
81841;SDS011;71284;50.918;7.092;2024-01-15T01:44:55;25.83;;;11.18;;
81841;SDS011;71284;50.918;7.092;2024-01-15T01:47:22;23.67;;;11.60;;
81841;SDS011;71284;50.918;7.092;2024-01-15T01:49:48;28.65;;;12.02;;
81841;SDS011;71284;50.918;7.092;2024-01-15T01:52:15;26.40;;;12.45;;
81841;SDS011;71284;50.918;7.092;2024-01-15T01:54:42;27.87;;;11.90;;
81841;SDS011;71284;50.918;7.092;2024-01-15T01:57:08;34.70;;;10.75;;
81841;SDS011;71284;50.918;7.092;2024-01-15T01:59:35;24.12;;;11.55;;
81841;SDS011;71284;50.918;7.092;2024-01-15T02:02:02;23.80;;;11.90;;
81841;SDS011;71284;50.918;7.092;2024-01-15T02:04:28;26.92;;;13.18;;
81841;SDS011;71284;50.918;7.092;2024-01-15T02:06:55;28.17;;;12.37;;
81841;SDS011;71284;50.918;7.092;2024-01-15T02:09:21;31.40;;;12.23;;
81841;SDS011;71284;50.918;7.092;2024-01-15T02:11:48;30.75;;;14.43;;
81841;SDS011;71284;50.918;7.092;2024-01-15T02:14:14;27.83;;;10.65;;
81841;SDS011;71284;50.918;7.092;2024-01-15T02:16:41;31.00;;;13.50;;
81841;SDS011;71284;50.918;7.092;2024-01-15T02:19:07;27.42;;;11.90;;
81841;SDS011;71284;50.918;7.092;2024-01-15T02:21:34;27.33;;;13.20;;
81841;SDS011;71284;50.918;7.092;2024-01-15T02:24:01;32.60;;;12.50;;
81841;SDS011;71284;50.918;7.092;2024-01-15T02:26:27;30.88;;;14.07;;
81841;SDS011;71284;50.918;7.092;2024-01-15T02:28:54;23.45;;;11.48;;
81841;SDS011;71284;50.918;7.092;2024-01-15T02:31:20;26.65;;;11.55;;
81841;SDS011;71284;50.918;7.092;2024-01-15T02:33:47;33.22;;;13.27;;
81841;SDS011;71284;50.918;7.092;2024-01-15T02:36:14;21.95;;;11.48;;
81841;SDS011;71284;50.918;7.092;2024-01-15T02:38:41;27.55;;;11.70;;
81841;SDS011;71284;50.918;7.092;2024-01-15T02:41:07;27.87;;;11.38;;
81841;SDS011;71284;50.918;7.092;2024-01-15T02:43:33;32.72;;;12.93;;
81841;SDS011;71284;50.918;7.092;2024-01-15T02:46:00;18.77;;;10.77;;
81841;SDS011;71284;50.918;7.092;2024-01-15T02:48:27;19.83;;;10.43;;
81841;SDS011;71284;50.918;7.092;2024-01-15T02:50:53;25.35;;;12.60;;
81841;SDS011;71284;50.918;7.092;2024-01-15T02:53:20;25.45;;;12.25;;
81841;SDS011;71284;50.918;7.092;2024-01-15T02:55:47;24.17;;;11.50;;
81841;SDS011;71284;50.918;7.092;2024-01-15T02:58:14;25.75;;;12.27;;
81841;SDS011;71284;50.918;7.092;2024-01-15T03:00:40;24.75;;;11.30;;
81841;SDS011;71284;50.918;7.092;2024-01-15T03:03:07;22.48;;;10.60;;
81841;SDS011;71284;50.918;7.092;2024-01-15T03:05:33;27.20;;;12.15;;
81841;SDS011;71284;50.918;7.092;2024-01-15T03:08:00;24.45;;;12.02;;
81841;SDS011;71284;50.918;7.092;2024-01-15T03:10:27;26.62;;;10.60;;
81841;SDS011;71284;50.918;7.092;2024-01-15T03:12:53;26.05;;;12.37;;
81841;SDS011;71284;50.918;7.092;2024-01-15T03:15:20;23.75;;;12.13;;
81841;SDS011;71284;50.918;7.092;2024-01-15T03:17:46;22.98;;;12.18;;
81841;SDS011;71284;50.918;7.092;2024-01-15T03:20:13;25.75;;;11.43;;
81841;SDS011;71284;50.918;7.092;2024-01-15T03:22:40;29.45;;;12.13;;
81841;SDS011;71284;50.918;7.092;2024-01-15T03:25:06;23.62;;;10.88;;
81841;SDS011;71284;50.918;7.092;2024-01-15T03:27:33;22.15;;;11.25;;
81841;SDS011;71284;50.918;7.092;2024-01-15T03:29:59;26.67;;;13.25;;
81841;SDS011;71284;50.918;7.092;2024-01-15T03:32:26;26.48;;;11.90;;
81841;SDS011;71284;50.918;7.092;2024-01-15T03:34:53;20.98;;;10.70;;
81841;SDS011;71284;50.918;7.092;2024-01-15T03:37:19;23.00;;;11.23;;
81841;SDS011;71284;50.918;7.092;2024-01-15T03:39:46;25.08;;;10.90;;
81841;SDS011;71284;50.918;7.092;2024-01-15T03:42:12;19.08;;;9.93;;
81841;SDS011;71284;50.918;7.092;2024-01-15T03:44:39;18.27;;;10.15;;
81841;SDS011;71284;50.918;7.092;2024-01-15T03:47:05;24.20;;;11.12;;
81841;SDS011;71284;50.918;7.092;2024-01-15T03:49:32;21.25;;;10.00;;
81841;SDS011;71284;50.918;7.092;2024-01-15T03:51:59;23.02;;;10.20;;
81841;SDS011;71284;50.918;7.092;2024-01-15T03:54:25;19.40;;;10.48;;
81841;SDS011;71284;50.918;7.092;2024-01-15T03:56:52;20.17;;;10.57;;
81841;SDS011;71284;50.918;7.092;2024-01-15T03:59:18;27.20;;;11.45;;
81841;SDS011;71284;50.918;7.092;2024-01-15T04:01:48;26.48;;;12.43;;
81841;SDS011;71284;50.918;7.092;2024-01-15T04:04:14;22.25;;;10.85;;
81841;SDS011;71284;50.918;7.092;2024-01-15T04:06:41;22.10;;;11.20;;
81841;SDS011;71284;50.918;7.092;2024-01-15T04:09:08;24.15;;;11.93;;
81841;SDS011;71284;50.918;7.092;2024-01-15T04:11:34;27.20;;;14.05;;
81841;SDS011;71284;50.918;7.092;2024-01-15T04:14:01;25.10;;;11.20;;
81841;SDS011;71284;50.918;7.092;2024-01-15T04:16:27;24.83;;;11.93;;
81841;SDS011;71284;50.918;7.092;2024-01-15T04:18:54;25.55;;;11.40;;
81841;SDS011;71284;50.918;7.092;2024-01-15T04:21:21;23.10;;;11.65;;
81841;SDS011;71284;50.918;7.092;2024-01-15T04:23:47;25.37;;;13.40;;
81841;SDS011;71284;50.918;7.092;2024-01-15T04:26:14;27.25;;;11.48;;
81841;SDS011;71284;50.918;7.092;2024-01-15T04:28:40;17.87;;;11.85;;
81841;SDS011;71284;50.918;7.092;2024-01-15T04:31:07;25.62;;;12.52;;
81841;SDS011;71284;50.918;7.092;2024-01-15T04:33:33;26.15;;;12.50;;
81841;SDS011;71284;50.918;7.092;2024-01-15T04:36:01;20.83;;;10.48;;
81841;SDS011;71284;50.918;7.092;2024-01-15T04:38:27;22.40;;;10.13;;
81841;SDS011;71284;50.918;7.092;2024-01-15T04:40:54;19.30;;;10.23;;
81841;SDS011;71284;50.918;7.092;2024-01-15T04:43:21;23.65;;;11.05;;
81841;SDS011;71284;50.918;7.092;2024-01-15T04:45:47;29.65;;;11.23;;
81841;SDS011;71284;50.918;7.092;2024-01-15T04:48:14;21.77;;;9.80;;
81841;SDS011;71284;50.918;7.092;2024-01-15T04:50:40;22.83;;;10.35;;
81841;SDS011;71284;50.918;7.092;2024-01-15T04:53:07;19.02;;;10.68;;
81841;SDS011;71284;50.918;7.092;2024-01-15T04:55:34;17.25;;;10.25;;
81841;SDS011;71284;50.918;7.092;2024-01-15T04:58:00;23.87;;;11.10;;
81841;SDS011;71284;50.918;7.092;2024-01-15T05:00:27;16.62;;;9.73;;
81841;SDS011;71284;50.918;7.092;2024-01-15T05:02:53;17.85;;;8.63;;
81841;SDS011;71284;50.918;7.092;2024-01-15T05:05:20;20.52;;;11.10;;
81841;SDS011;71284;50.918;7.092;2024-01-15T05:07:46;21.27;;;11.00;;
81841;SDS011;71284;50.918;7.092;2024-01-15T05:10:13;18.48;;;10.23;;
81841;SDS011;71284;50.918;7.092;2024-01-15T05:12:40;17.95;;;9.57;;
81841;SDS011;71284;50.918;7.092;2024-01-15T05:15:06;18.20;;;9.57;;
81841;SDS011;71284;50.918;7.092;2024-01-15T05:17:33;13.77;;;7.80;;
81841;SDS011;71284;50.918;7.092;2024-01-15T05:20:00;13.32;;;8.45;;
81841;SDS011;71284;50.918;7.092;2024-01-15T05:22:26;18.90;;;8.40;;
81841;SDS011;71284;50.918;7.092;2024-01-15T05:24:53;22.25;;;10.65;;
81841;SDS011;71284;50.918;7.092;2024-01-15T05:27:19;15.10;;;8.27;;
81841;SDS011;71284;50.918;7.092;2024-01-15T05:29:46;19.58;;;10.27;;
81841;SDS011;71284;50.918;7.092;2024-01-15T05:32:13;15.52;;;8.68;;
81841;SDS011;71284;50.918;7.092;2024-01-15T05:34:39;19.17;;;9.70;;
81841;SDS011;71284;50.918;7.092;2024-01-15T05:37:06;16.08;;;8.65;;
81841;SDS011;71284;50.918;7.092;2024-01-15T05:39:32;16.73;;;8.13;;
81841;SDS011;71284;50.918;7.092;2024-01-15T05:41:59;15.75;;;9.18;;
81841;SDS011;71284;50.918;7.092;2024-01-15T05:44:25;27.67;;;9.00;;
81841;SDS011;71284;50.918;7.092;2024-01-15T05:46:52;14.38;;;8.30;;
81841;SDS011;71284;50.918;7.092;2024-01-15T05:49:19;13.07;;;7.57;;
81841;SDS011;71284;50.918;7.092;2024-01-15T05:51:45;13.65;;;7.95;;
81841;SDS011;71284;50.918;7.092;2024-01-15T05:54:12;9.43;;;7.45;;
81841;SDS011;71284;50.918;7.092;2024-01-15T05:56:38;12.43;;;7.85;;
81841;SDS011;71284;50.918;7.092;2024-01-15T05:59:05;19.33;;;8.85;;
81841;SDS011;71284;50.918;7.092;2024-01-15T06:01:32;11.65;;;7.12;;
81841;SDS011;71284;50.918;7.092;2024-01-15T06:03:58;13.07;;;7.53;;
81841;SDS011;71284;50.918;7.092;2024-01-15T06:06:25;14.87;;;6.82;;
81841;SDS011;71284;50.918;7.092;2024-01-15T06:08:51;14.35;;;7.80;;
81841;SDS011;71284;50.918;7.092;2024-01-15T06:11:18;14.65;;;7.40;;
81841;SDS011;71284;50.918;7.092;2024-01-15T06:13:44;10.68;;;7.00;;
81841;SDS011;71284;50.918;7.092;2024-01-15T06:16:13;11.48;;;6.87;;
81841;SDS011;71284;50.918;7.092;2024-01-15T06:18:38;10.05;;;7.03;;
81841;SDS011;71284;50.918;7.092;2024-01-15T06:21:04;16.27;;;7.35;;
81841;SDS011;71284;50.918;7.092;2024-01-15T06:23:31;9.80;;;7.10;;
81841;SDS011;71284;50.918;7.092;2024-01-15T06:25:57;13.13;;;7.97;;
81841;SDS011;71284;50.918;7.092;2024-01-15T06:28:24;15.43;;;7.35;;
81841;SDS011;71284;50.918;7.092;2024-01-15T06:30:51;16.05;;;7.20;;
81841;SDS011;71284;50.918;7.092;2024-01-15T06:33:17;14.00;;;8.05;;
81841;SDS011;71284;50.918;7.092;2024-01-15T06:35:44;11.65;;;8.15;;
81841;SDS011;71284;50.918;7.092;2024-01-15T06:38:10;15.25;;;8.20;;
81841;SDS011;71284;50.918;7.092;2024-01-15T06:40:37;18.42;;;8.63;;
81841;SDS011;71284;50.918;7.092;2024-01-15T06:43:04;13.60;;;8.48;;
81841;SDS011;71284;50.918;7.092;2024-01-15T06:45:30;14.45;;;9.13;;
81841;SDS011;71284;50.918;7.092;2024-01-15T06:47:57;9.25;;;7.30;;
81841;SDS011;71284;50.918;7.092;2024-01-15T06:50:23;13.77;;;8.23;;
81841;SDS011;71284;50.918;7.092;2024-01-15T06:52:50;13.75;;;7.30;;
81841;SDS011;71284;50.918;7.092;2024-01-15T06:55:16;19.83;;;8.52;;
81841;SDS011;71284;50.918;7.092;2024-01-15T06:57:43;15.82;;;7.78;;
81841;SDS011;71284;50.918;7.092;2024-01-15T07:00:10;14.40;;;7.80;;
81841;SDS011;71284;50.918;7.092;2024-01-15T07:02:37;16.50;;;8.43;;
81841;SDS011;71284;50.918;7.092;2024-01-15T07:05:03;16.33;;;8.70;;
81841;SDS011;71284;50.918;7.092;2024-01-15T07:07:30;13.27;;;7.65;;
81841;SDS011;71284;50.918;7.092;2024-01-15T07:09:56;18.45;;;8.57;;
81841;SDS011;71284;50.918;7.092;2024-01-15T07:12:23;17.05;;;8.45;;
81841;SDS011;71284;50.918;7.092;2024-01-15T07:14:50;14.35;;;8.20;;
81841;SDS011;71284;50.918;7.092;2024-01-15T07:17:16;17.75;;;8.32;;
81841;SDS011;71284;50.918;7.092;2024-01-15T07:19:43;16.70;;;8.80;;
81841;SDS011;71284;50.918;7.092;2024-01-15T07:22:09;14.93;;;8.35;;
81841;SDS011;71284;50.918;7.092;2024-01-15T07:24:36;20.40;;;8.70;;
81841;SDS011;71284;50.918;7.092;2024-01-15T07:27:03;13.40;;;8.40;;
81841;SDS011;71284;50.918;7.092;2024-01-15T07:29:30;11.10;;;7.93;;
81841;SDS011;71284;50.918;7.092;2024-01-15T07:31:56;14.60;;;9.25;;
81841;SDS011;71284;50.918;7.092;2024-01-15T07:34:23;15.80;;;8.75;;
81841;SDS011;71284;50.918;7.092;2024-01-15T07:36:49;15.65;;;8.00;;
81841;SDS011;71284;50.918;7.092;2024-01-15T07:39:16;22.55;;;8.55;;
81841;SDS011;71284;50.918;7.092;2024-01-15T07:41:42;14.75;;;8.02;;
81841;SDS011;71284;50.918;7.092;2024-01-15T07:44:09;11.40;;;6.95;;
81841;SDS011;71284;50.918;7.092;2024-01-15T07:46:35;15.23;;;8.55;;
81841;SDS011;71284;50.918;7.092;2024-01-15T07:49:02;12.55;;;7.47;;
81841;SDS011;71284;50.918;7.092;2024-01-15T07:51:29;14.75;;;8.70;;
81841;SDS011;71284;50.918;7.092;2024-01-15T07:53:55;12.85;;;8.35;;
81841;SDS011;71284;50.918;7.092;2024-01-15T07:56:22;15.15;;;7.95;;
81841;SDS011;71284;50.918;7.092;2024-01-15T07:58:48;12.07;;;7.60;;
81841;SDS011;71284;50.918;7.092;2024-01-15T08:01:16;19.83;;;8.98;;
81841;SDS011;71284;50.918;7.092;2024-01-15T08:03:42;17.87;;;8.40;;
81841;SDS011;71284;50.918;7.092;2024-01-15T08:06:09;12.32;;;9.13;;
81841;SDS011;71284;50.918;7.092;2024-01-15T08:08:36;15.48;;;9.35;;
81841;SDS011;71284;50.918;7.092;2024-01-15T08:11:02;15.77;;;9.18;;
81841;SDS011;71284;50.918;7.092;2024-01-15T08:13:29;13.60;;;8.20;;
81841;SDS011;71284;50.918;7.092;2024-01-15T08:15:56;20.23;;;9.95;;
81841;SDS011;71284;50.918;7.092;2024-01-15T08:18:22;12.85;;;10.10;;
81841;SDS011;71284;50.918;7.092;2024-01-15T08:20:49;20.35;;;8.65;;
81841;SDS011;71284;50.918;7.092;2024-01-15T08:23:15;19.25;;;9.50;;
81841;SDS011;71284;50.918;7.092;2024-01-15T08:25:42;18.98;;;10.30;;
81841;SDS011;71284;50.918;7.092;2024-01-15T08:28:09;20.80;;;9.48;;
81841;SDS011;71284;50.918;7.092;2024-01-15T08:30:35;21.65;;;10.13;;
81841;SDS011;71284;50.918;7.092;2024-01-15T08:33:02;14.70;;;9.50;;
81841;SDS011;71284;50.918;7.092;2024-01-15T08:35:28;22.33;;;11.05;;
81841;SDS011;71284;50.918;7.092;2024-01-15T08:37:55;16.67;;;10.55;;
81841;SDS011;71284;50.918;7.092;2024-01-15T08:40:22;16.65;;;9.80;;
81841;SDS011;71284;50.918;7.092;2024-01-15T08:42:48;19.95;;;10.07;;
81841;SDS011;71284;50.918;7.092;2024-01-15T08:45:15;24.50;;;11.00;;
81841;SDS011;71284;50.918;7.092;2024-01-15T08:47:41;22.00;;;9.55;;
81841;SDS011;71284;50.918;7.092;2024-01-15T08:50:08;12.00;;;9.27;;
81841;SDS011;71284;50.918;7.092;2024-01-15T08:52:34;17.90;;;10.65;;
81841;SDS011;71284;50.918;7.092;2024-01-15T08:55:01;20.73;;;10.07;;
81841;SDS011;71284;50.918;7.092;2024-01-15T08:57:28;21.65;;;9.27;;
81841;SDS011;71284;50.918;7.092;2024-01-15T08:59:54;23.98;;;10.15;;
81841;SDS011;71284;50.918;7.092;2024-01-15T09:02:21;17.35;;;8.00;;
81841;SDS011;71284;50.918;7.092;2024-01-15T09:04:47;20.33;;;8.68;;
81841;SDS011;71284;50.918;7.092;2024-01-15T09:07:14;12.57;;;8.35;;
81841;SDS011;71284;50.918;7.092;2024-01-15T09:09:41;14.15;;;9.70;;
81841;SDS011;71284;50.918;7.092;2024-01-15T09:12:07;11.50;;;7.18;;
81841;SDS011;71284;50.918;7.092;2024-01-15T09:14:34;19.70;;;9.82;;
81841;SDS011;71284;50.918;7.092;2024-01-15T09:17:01;19.60;;;9.07;;
81841;SDS011;71284;50.918;7.092;2024-01-15T09:19:27;14.98;;;9.30;;
81841;SDS011;71284;50.918;7.092;2024-01-15T09:21:54;27.33;;;8.82;;
81841;SDS011;71284;50.918;7.092;2024-01-15T09:24:20;12.27;;;7.57;;
81841;SDS011;71284;50.918;7.092;2024-01-15T09:26:47;10.45;;;6.55;;
81841;SDS011;71284;50.918;7.092;2024-01-15T09:29:13;11.23;;;7.30;;
81841;SDS011;71284;50.918;7.092;2024-01-15T09:31:40;14.60;;;7.65;;
81841;SDS011;71284;50.918;7.092;2024-01-15T09:34:07;12.73;;;6.37;;
81841;SDS011;71284;50.918;7.092;2024-01-15T09:36:38;24.80;;;6.50;;
81841;SDS011;71284;50.918;7.092;2024-01-15T09:39:00;12.73;;;6.68;;
81841;SDS011;71284;50.918;7.092;2024-01-15T09:41:26;11.52;;;5.30;;
81841;SDS011;71284;50.918;7.092;2024-01-15T09:43:53;11.35;;;6.10;;
81841;SDS011;71284;50.918;7.092;2024-01-15T09:46:20;10.52;;;5.35;;
81841;SDS011;71284;50.918;7.092;2024-01-15T09:48:46;17.40;;;6.18;;
81841;SDS011;71284;50.918;7.092;2024-01-15T09:51:13;6.85;;;5.53;;
81841;SDS011;71284;50.918;7.092;2024-01-15T09:53:39;9.32;;;5.22;;
81841;SDS011;71284;50.918;7.092;2024-01-15T09:56:06;11.38;;;6.60;;
81841;SDS011;71284;50.918;7.092;2024-01-15T09:58:33;12.73;;;5.85;;
81841;SDS011;71284;50.918;7.092;2024-01-15T10:00:59;7.12;;;5.07;;
81841;SDS011;71284;50.918;7.092;2024-01-15T10:03:26;10.88;;;5.00;;
81841;SDS011;71284;50.918;7.092;2024-01-15T10:05:52;6.18;;;4.85;;
81841;SDS011;71284;50.918;7.092;2024-01-15T10:08:19;7.62;;;4.03;;
81841;SDS011;71284;50.918;7.092;2024-01-15T10:10:45;9.32;;;5.10;;
81841;SDS011;71284;50.918;7.092;2024-01-15T10:13:12;10.02;;;4.68;;
81841;SDS011;71284;50.918;7.092;2024-01-15T10:15:39;11.43;;;4.70;;
81841;SDS011;71284;50.918;7.092;2024-01-15T10:18:05;6.45;;;4.10;;
81841;SDS011;71284;50.918;7.092;2024-01-15T10:20:32;4.50;;;3.97;;
81841;SDS011;71284;50.918;7.092;2024-01-15T10:22:58;3.90;;;3.55;;
81841;SDS011;71284;50.918;7.092;2024-01-15T10:25:25;5.65;;;4.03;;
81841;SDS011;71284;50.918;7.092;2024-01-15T10:30:26;10.15;;;3.62;;
81841;SDS011;71284;50.918;7.092;2024-01-15T10:33:00;6.47;;;3.75;;
81841;SDS011;71284;50.918;7.092;2024-01-15T10:35:27;5.87;;;2.80;;
81841;SDS011;71284;50.918;7.092;2024-01-15T10:37:53;7.57;;;2.60;;
81841;SDS011;71284;50.918;7.092;2024-01-15T10:40:20;3.17;;;2.97;;
81841;SDS011;71284;50.918;7.092;2024-01-15T10:42:47;11.45;;;3.45;;
81841;SDS011;71284;50.918;7.092;2024-01-15T10:45:13;4.68;;;2.87;;
81841;SDS011;71284;50.918;7.092;2024-01-15T10:47:40;3.40;;;3.10;;
81841;SDS011;71284;50.918;7.092;2024-01-15T10:50:07;6.78;;;2.70;;
81841;SDS011;71284;50.918;7.092;2024-01-15T10:52:35;10.25;;;4.00;;
81841;SDS011;71284;50.918;7.092;2024-01-15T10:55:03;5.28;;;3.80;;
81841;SDS011;71284;50.918;7.092;2024-01-15T10:57:30;2.92;;;2.72;;
81841;SDS011;71284;50.918;7.092;2024-01-15T10:59:56;2.58;;;2.40;;
81841;SDS011;71284;50.918;7.092;2024-01-15T11:02:23;7.87;;;3.37;;
81841;SDS011;71284;50.918;7.092;2024-01-15T11:04:49;3.17;;;2.85;;
81841;SDS011;71284;50.918;7.092;2024-01-15T11:07:16;3.10;;;2.22;;
81841;SDS011;71284;50.918;7.092;2024-01-15T11:09:43;9.73;;;2.80;;
81841;SDS011;71284;50.918;7.092;2024-01-15T11:12:10;4.47;;;2.15;;
81841;SDS011;71284;50.918;7.092;2024-01-15T11:14:40;3.35;;;3.12;;
81841;SDS011;71284;50.918;7.092;2024-01-15T11:17:06;7.35;;;2.90;;
81841;SDS011;71284;50.918;7.092;2024-01-15T11:19:35;2.62;;;2.42;;
81841;SDS011;71284;50.918;7.092;2024-01-15T11:22:01;3.00;;;2.78;;
81841;SDS011;71284;50.918;7.092;2024-01-15T11:24:37;2.40;;;2.30;;
81841;SDS011;71284;50.918;7.092;2024-01-15T11:27:02;2.75;;;2.55;;
81841;SDS011;71284;50.918;7.092;2024-01-15T11:29:30;6.78;;;2.87;;
81841;SDS011;71284;50.918;7.092;2024-01-15T11:32:00;3.05;;;1.83;;
81841;SDS011;71284;50.918;7.092;2024-01-15T11:37:06;1.45;;;1.35;;
81841;SDS011;71284;50.918;7.092;2024-01-15T11:39:39;11.07;;;2.92;;
81841;SDS011;71284;50.918;7.092;2024-01-15T11:42:06;1.60;;;1.50;;
81841;SDS011;71284;50.918;7.092;2024-01-15T11:44:32;2.08;;;1.73;;
81841;SDS011;71284;50.918;7.092;2024-01-15T11:47:00;1.73;;;1.62;;
81841;SDS011;71284;50.918;7.092;2024-01-15T11:52:11;2.03;;;1.92;;
81841;SDS011;71284;50.918;7.092;2024-01-15T11:54:38;1.90;;;1.80;;
81841;SDS011;71284;50.918;7.092;2024-01-15T11:57:08;1.65;;;1.55;;
81841;SDS011;71284;50.918;7.092;2024-01-15T11:59:34;2.40;;;2.30;;
81841;SDS011;71284;50.918;7.092;2024-01-15T12:02:01;2.00;;;1.90;;
81841;SDS011;71284;50.918;7.092;2024-01-15T12:04:27;3.12;;;2.53;;
81841;SDS011;71284;50.918;7.092;2024-01-15T12:06:54;3.70;;;3.40;;
81841;SDS011;71284;50.918;7.092;2024-01-15T12:09:20;3.62;;;3.35;;
81841;SDS011;71284;50.918;7.092;2024-01-15T12:11:51;3.30;;;3.00;;
81841;SDS011;71284;50.918;7.092;2024-01-15T12:14:14;3.72;;;3.17;;
81841;SDS011;71284;50.918;7.092;2024-01-15T12:16:40;5.40;;;3.35;;
81841;SDS011;71284;50.918;7.092;2024-01-15T12:19:07;4.25;;;3.92;;
81841;SDS011;71284;50.918;7.092;2024-01-15T12:21:34;3.28;;;3.08;;
81841;SDS011;71284;50.918;7.092;2024-01-15T12:24:00;3.70;;;3.37;;
81841;SDS011;71284;50.918;7.092;2024-01-15T12:26:27;6.68;;;3.95;;
81841;SDS011;71284;50.918;7.092;2024-01-15T12:28:54;3.67;;;3.37;;
81841;SDS011;71284;50.918;7.092;2024-01-15T12:31:20;4.18;;;3.87;;
81841;SDS011;71284;50.918;7.092;2024-01-15T12:33:46;4.93;;;4.50;;
81841;SDS011;71284;50.918;7.092;2024-01-15T12:36:13;4.65;;;4.30;;
81841;SDS011;71284;50.918;7.092;2024-01-15T12:38:40;3.83;;;3.53;;
81841;SDS011;71284;50.918;7.092;2024-01-15T12:41:06;5.28;;;4.78;;
81841;SDS011;71284;50.918;7.092;2024-01-15T12:43:33;3.42;;;3.12;;
81841;SDS011;71284;50.918;7.092;2024-01-15T12:45:59;3.35;;;2.97;;
81841;SDS011;71284;50.918;7.092;2024-01-15T12:48:26;5.43;;;4.20;;
81841;SDS011;71284;50.918;7.092;2024-01-15T12:50:53;6.90;;;3.03;;
81841;SDS011;71284;50.918;7.092;2024-01-15T12:53:19;5.68;;;3.15;;
81841;SDS011;71284;50.918;7.092;2024-01-15T12:55:46;12.20;;;3.12;;
81841;SDS011;71284;50.918;7.092;2024-01-15T12:58:12;7.93;;;3.80;;
81841;SDS011;71284;50.918;7.092;2024-01-15T13:00:39;5.07;;;3.05;;
81841;SDS011;71284;50.918;7.092;2024-01-15T13:03:06;4.72;;;2.70;;
81841;SDS011;71284;50.918;7.092;2024-01-15T13:05:32;14.40;;;3.15;;
81841;SDS011;71284;50.918;7.092;2024-01-15T13:08:00;5.40;;;2.40;;
81841;SDS011;71284;50.918;7.092;2024-01-15T13:10:26;5.07;;;2.35;;
81841;SDS011;71284;50.918;7.092;2024-01-15T13:12:53;4.55;;;3.50;;
81841;SDS011;71284;50.918;7.092;2024-01-15T13:15:19;5.00;;;2.20;;
81841;SDS011;71284;50.918;7.092;2024-01-15T13:17:46;6.43;;;2.80;;
81841;SDS011;71284;50.918;7.092;2024-01-15T13:20:13;6.28;;;2.42;;
81841;SDS011;71284;50.918;7.092;2024-01-15T13:22:39;4.78;;;2.50;;
81841;SDS011;71284;50.918;7.092;2024-01-15T13:25:06;7.12;;;2.65;;
81841;SDS011;71284;50.918;7.092;2024-01-15T13:27:34;4.50;;;3.03;;
81841;SDS011;71284;50.918;7.092;2024-01-15T13:30:00;3.35;;;2.22;;
81841;SDS011;71284;50.918;7.092;2024-01-15T13:32:27;6.87;;;2.53;;
81841;SDS011;71284;50.918;7.092;2024-01-15T13:34:55;3.45;;;1.60;;
81841;SDS011;71284;50.918;7.092;2024-01-15T13:37:22;2.95;;;1.50;;
81841;SDS011;71284;50.918;7.092;2024-01-15T13:39:50;1.98;;;1.80;;
81841;SDS011;71284;50.918;7.092;2024-01-15T13:42:19;5.53;;;1.62;;
81841;SDS011;71284;50.918;7.092;2024-01-15T13:44:45;4.03;;;1.60;;
81841;SDS011;71284;50.918;7.092;2024-01-15T13:47:12;1.95;;;1.85;;
81841;SDS011;71284;50.918;7.092;2024-01-15T13:49:38;3.00;;;1.83;;
81841;SDS011;71284;50.918;7.092;2024-01-15T13:52:05;9.40;;;1.40;;
81841;SDS011;71284;50.918;7.092;2024-01-15T13:54:32;3.72;;;1.10;;
81841;SDS011;71284;50.918;7.092;2024-01-15T13:56:58;1.37;;;1.27;;
81841;SDS011;71284;50.918;7.092;2024-01-15T13:59:25;4.37;;;1.60;;
81841;SDS011;71284;50.918;7.092;2024-01-15T14:01:51;3.72;;;1.35;;
81841;SDS011;71284;50.918;7.092;2024-01-15T14:04:18;5.75;;;1.40;;
81841;SDS011;71284;50.918;7.092;2024-01-15T14:06:45;4.05;;;1.48;;
81841;SDS011;71284;50.918;7.092;2024-01-15T14:09:11;2.37;;;0.93;;
81841;SDS011;71284;50.918;7.092;2024-01-15T14:11:38;2.28;;;1.20;;
81841;SDS011;71284;50.918;7.092;2024-01-15T14:14:04;1.20;;;1.12;;
81841;SDS011;71284;50.918;7.092;2024-01-15T14:16:31;1.25;;;0.80;;
81841;SDS011;71284;50.918;7.092;2024-01-15T14:18:57;2.58;;;0.85;;
81841;SDS011;71284;50.918;7.092;2024-01-15T14:21:24;3.22;;;0.80;;
81841;SDS011;71284;50.918;7.092;2024-01-15T14:23:51;1.92;;;1.12;;
81841;SDS011;71284;50.918;7.092;2024-01-15T14:26:17;0.80;;;0.80;;
81841;SDS011;71284;50.918;7.092;2024-01-15T14:28:44;0.80;;;0.80;;
81841;SDS011;71284;50.918;7.092;2024-01-15T14:31:10;0.50;;;0.50;;
81841;SDS011;71284;50.918;7.092;2024-01-15T14:33:37;2.12;;;0.90;;
81841;SDS011;71284;50.918;7.092;2024-01-15T14:36:04;2.05;;;0.93;;
81841;SDS011;71284;50.918;7.092;2024-01-15T14:38:30;1.10;;;0.60;;